Time;durP1;ratioP1;P1;durP2;ratioP2;P2;SDS_P1;SDS_P2;PMS_P1;PMS_P2;Temp;Humidity;BMP_temperature;BMP_pressure;BME280_temperature;BME280_humidity;BME280_pressure;Samples;Min_cycle;Max_cycle;Signal;HPM_P1;HPM_P2
2022/10/15 00:01:26;;;;;;;12.10;4.82;;;;;;;6.66;63.63;100771.75;5014264;28;20139;-78
2022/10/15 00:03:57;;;;;;;8.18;4.65;;;;;;;6.70;63.49;100766.69;5031162;28;20078;-78
2022/10/15 00:06:32;;;;;;;8.48;5.00;;;;;;;6.81;63.26;100776.41;5015392;28;20032;-79
2022/10/15 00:08:59;;;;;;;10.35;4.80;;;;;;;6.69;62.91;100757.19;5046825;28;20044;-80
2022/10/15 00:11:27;;;;;;;9.52;5.40;;;;;;;6.67;62.87;100756.25;5023367;28;20412;-80
2022/10/15 00:13:56;;;;;;;9.35;5.55;;;;;;;6.83;63.11;100788.53;5043711;28;20563;-80
2022/10/15 00:16:27;;;;;;;9.45;5.25;;;;;;;6.72;62.90;100780.53;5045369;28;20040;-78
2022/10/15 00:19:04;;;;;;;7.97;5.13;;;;;;;6.54;62.63;100751.66;5017771;28;20044;-80
2022/10/15 00:21:36;;;;;;;9.35;5.25;;;;;;;6.58;63.01;100756.06;5045207;28;20124;-77
2022/10/15 00:24:06;;;;;;;9.43;4.95;;;;;;;6.86;62.75;100790.31;5044173;28;20037;-79
2022/10/15 00:26:37;;;;;;;8.55;4.70;;;;;;;6.89;62.95;100785.19;5014919;28;20037;-78
2022/10/15 00:29:06;;;;;;;8.95;4.57;;;;;;;6.98;62.84;100795.75;5047664;28;20064;-78
2022/10/15 00:31:39;;;;;;;10.38;5.03;;;;;;;6.97;62.86;100777.59;5047395;28;20055;-78
2022/10/15 00:34:17;;;;;;;10.50;5.85;;;;;;;6.98;62.71;100763.81;5044662;28;20389;-79
2022/10/15 00:36:45;;;;;;;10.45;4.72;;;;;;;7.13;62.43;100782.28;5043484;28;20451;-78
2022/10/15 00:39:11;;;;;;;12.90;5.20;;;;;;;7.14;62.73;100789.22;5024261;28;20049;-76
2022/10/15 00:41:42;;;;;;;8.32;4.45;;;;;;;7.16;62.62;100774.59;4997347;28;20162;-78
2022/10/15 00:45:15;;;;;;;8.25;5.00;;;;;;;7.21;62.24;100772.06;5013325;28;20534;-79
2022/10/15 00:48:07;;;;;;;9.70;4.90;;;;;;;7.39;61.95;100779.34;5043773;28;20114;-80
2022/10/15 00:50:44;;;;;;;8.10;4.55;;;;;;;6.27;61.64;100597.66;5016120;28;20126;-79
2022/10/15 00:53:11;;;;;;;7.60;4.50;;;;;;;7.24;61.92;100766.97;5043502;28;20496;-79
2022/10/15 00:55:41;;;;;;;12.63;5.28;;;;;;;7.37;61.79;100783.63;4997410;28;20108;-78
2022/10/15 00:58:26;;;;;;;7.75;4.22;;;;;;;7.35;62.04;100787.91;4995751;28;20060;-77
2022/10/15 01:00:58;;;;;;;8.77;4.43;;;;;;;7.04;61.72;100740.66;5029808;28;20107;-80
2022/10/15 01:03:24;;;;;;;9.20;4.82;;;;;;;7.26;61.83;100769.56;5023519;28;20531;-78
2022/10/15 01:05:52;;;;;;;10.45;5.40;;;;;;;7.35;61.66;100781.00;5027808;28;20055;-81
2022/10/15 01:08:18;;;;;;;12.00;5.40;;;;;;;7.15;61.75;100754.72;5041965;28;20052;-79
2022/10/15 01:11:23;;;;;;;8.23;4.63;;;;;;;7.27;61.64;100784.28;4996137;28;20165;-78
2022/10/15 01:14:17;;;;;;;9.48;5.05;;;;;;;7.22;61.67;100790.22;5022435;28;20040;-77
2022/10/15 01:16:45;;;;;;;15.55;5.22;;;;;;;7.29;61.72;100790.34;5022838;28;20049;-79
2022/10/15 01:19:44;;;;;;;9.57;5.10;;;;;;;7.27;61.39;100779.97;5027281;28;20045;-81
2022/10/15 01:22:42;;;;;;;9.38;4.95;;;;;;;7.33;61.49;100785.25;5010444;28;20048;-79
2022/10/15 01:25:41;;;;;;;10.45;5.03;;;;;;;7.31;61.33;100778.31;4995037;28;20036;-78
2022/10/15 01:28:30;;;;;;;5.85;4.15;;;;;;;7.37;61.01;100799.16;5006976;28;20123;-78
2022/10/15 01:31:10;;;;;;;9.07;4.80;;;;;;;7.38;61.56;100793.16;5042378;28;20114;-77
2022/10/15 01:33:55;;;;;;;8.27;4.70;;;;;;;7.31;60.76;100789.53;5023056;28;20041;-77
2022/10/15 01:36:46;;;;;;;8.45;4.22;;;;;;;7.18;60.98;100765.09;5037857;28;20061;-80
2022/10/15 01:39:25;;;;;;;5.68;3.85;;;;;;;7.35;61.08;100796.53;4993261;28;20045;-80
2022/10/15 01:42:18;;;;;;;10.23;4.43;;;;;;;6.91;61.02;100732.66;5007273;28;20397;-79
2022/10/15 01:44:53;;;;;;;8.32;4.25;;;;;;;7.19;61.09;100790.16;4980943;28;20394;-78
2022/10/15 01:47:45;;;;;;;9.10;4.65;;;;;;;7.29;60.79;100805.88;5006710;28;20038;-77
2022/10/15 01:50:19;;;;;;;9.05;4.68;;;;;;;7.07;60.94;100771.78;5055881;28;20061;-79
2022/10/15 01:52:50;;;;;;;10.88;4.45;;;;;;;7.23;60.87;100802.31;5025882;28;20061;-80
2022/10/15 01:55:25;;;;;;;9.02;3.92;;;;;;;6.81;61.07;100735.88;5026963;28;20048;-78
2022/10/15 01:57:56;;;;;;;6.55;3.92;;;;;;;7.21;61.09;100801.41;4994217;28;20040;-79
2022/10/15 02:00:37;;;;;;;7.47;3.60;;;;;;;7.01;60.87;100763.88;4992842;28;20067;-77
2022/10/15 02:03:26;;;;;;;7.40;4.10;;;;;;;6.75;60.99;100715.03;5010082;28;20044;-79
2022/10/15 02:06:05;;;;;;;9.95;4.45;;;;;;;7.03;61.06;100777.72;4993854;28;20107;-81
2022/10/15 02:08:44;;;;;;;6.07;3.90;;;;;;;7.20;61.06;100798.81;5022125;28;20489;-78
2022/10/15 02:11:14;;;;;;;9.93;4.28;;;;;;;7.13;60.79;100790.03;5040334;28;20092;-78
2022/10/15 02:14:00;;;;;;;8.23;3.95;;;;;;;7.10;61.25;100792.56;5025463;28;20076;-80
2022/10/15 02:16:42;;;;;;;7.35;4.28;;;;;;;7.09;60.96;100802.03;5043637;28;20041;-80
2022/10/15 02:19:40;;;;;;;10.63;4.15;;;;;;;7.10;61.24;100800.34;5042546;28;20049;-80
2022/10/15 02:22:15;;;;;;;13.10;4.43;;;;;;;7.16;61.02;100804.75;5006454;28;20103;-80
2022/10/15 02:24:57;;;;;;;6.53;3.97;;;;;;;7.15;61.18;100803.00;5028063;28;20053;-77
2022/10/15 02:27:27;;;;;;;7.38;4.47;;;;;;;7.16;60.90;100810.81;5011316;28;20037;-78
2022/10/15 02:29:55;;;;;;;5.85;3.30;;;;;;;7.16;60.90;100815.13;5009866;28;20087;-79
2022/10/15 02:32:23;;;;;;;9.90;4.20;;;;;;;7.12;60.75;100805.53;5021149;28;20114;-79
2022/10/15 02:34:51;;;;;;;8.05;4.05;;;;;;;7.14;60.89;100815.09;5022963;28;20076;-79
2022/10/15 02:37:23;;;;;;;6.57;4.07;;;;;;;6.99;61.06;100791.44;5035112;28;20575;-78
2022/10/15 02:39:50;;;;;;;9.32;3.75;;;;;;;6.98;60.74;100787.09;5025506;28;20392;-79
2022/10/15 02:42:20;;;;;;;6.38;3.60;;;;;;;7.09;60.51;100802.03;5014714;28;20534;-79
2022/10/15 02:44:47;;;;;;;8.18;3.90;;;;;;;7.08;60.87;100802.00;5026230;28;20045;-79
2022/10/15 02:47:14;;;;;;;7.63;4.13;;;;;;;7.33;60.87;100820.66;5025513;28;20047;-81
2022/10/15 02:49:40;;;;;;;5.63;3.65;;;;;;;7.31;60.55;100811.97;5015079;28;20132;-81
2022/10/15 02:52:06;;;;;;;5.78;3.60;;;;;;;7.39;60.62;100819.06;4999415;28;20136;-78
2022/10/15 02:54:33;;;;;;;7.85;4.03;;;;;;;7.41;60.73;100816.47;5028407;28;20064;-78
2022/10/15 02:57:00;;;;;;;9.65;3.67;;;;;;;7.37;60.48;100809.53;5013983;28;20041;-79
2022/10/15 02:59:26;;;;;;;5.88;3.58;;;;;;;7.41;60.17;100820.81;5013936;28;20063;-78
2022/10/15 03:01:53;;;;;;;5.70;3.70;;;;;;;7.44;60.24;100832.09;5011807;28;20042;-78
2022/10/15 03:04:20;;;;;;;5.80;3.55;;;;;;;7.22;60.25;100787.63;5028775;28;20036;-78
2022/10/15 03:06:46;;;;;;;5.20;3.55;;;;;;;7.45;59.98;100818.31;4997579;28;20041;-80
2022/10/15 03:09:13;;;;;;;6.43;3.67;;;;;;;7.52;59.89;100830.53;5026380;28;20662;-80
2022/10/15 03:11:39;;;;;;;7.75;3.78;;;;;;;7.62;60.17;100835.88;5013228;28;20048;-79
2022/10/15 03:14:06;;;;;;;4.47;3.40;;;;;;;7.63;60.05;100830.75;5025491;28;20208;-78
2022/10/15 03:16:33;;;;;;;6.20;3.75;;;;;;;7.56;59.74;100804.69;5029549;28;20037;-78
2022/10/15 03:18:59;;;;;;;8.18;3.90;;;;;;;7.63;59.40;100816.91;5043810;28;20052;-77
2022/10/15 03:21:25;;;;;;;5.18;3.55;;;;;;;7.64;59.45;100831.63;5027607;28;20038;-79
2022/10/15 03:23:57;;;;;;;6.03;3.80;;;;;;;7.64;59.84;100839.38;5032050;28;20040;-77
2022/10/15 03:26:24;;;;;;;6.38;4.07;;;;;;;7.62;59.50;100835.88;5013415;28;20144;-77
2022/10/15 03:28:49;;;;;;;8.07;3.67;;;;;;;7.54;59.45;100841.81;5059361;28;20045;-78
2022/10/15 03:31:28;;;;;;;9.73;3.92;;;;;;;7.56;59.52;100840.97;5052010;28;20052;-80
2022/10/15 03:33:56;;;;;;;9.00;3.97;;;;;;;7.54;59.11;100841.81;5037373;28;20041;-78
2022/10/15 03:36:25;;;;;;;7.18;3.80;;;;;;;7.45;59.42;100839.03;5032217;28;20060;-78
2022/10/15 03:38:51;;;;;;;8.50;4.03;;;;;;;7.27;59.50;100805.88;5032502;28;20057;-80
2022/10/15 03:41:17;;;;;;;8.60;4.53;;;;;;;7.39;59.57;100828.56;5028560;28;20044;-77
2022/10/15 03:43:44;;;;;;;9.75;4.45;;;;;;;7.51;59.55;100835.66;5024502;28;20056;-79
2022/10/15 03:46:12;;;;;;;10.88;4.65;;;;;;;7.49;59.50;100829.63;5030810;28;20048;-79
2022/10/15 03:48:42;;;;;;;6.88;4.10;;;;;;;7.63;59.54;100840.22;5013562;28;21327;-77
2022/10/15 03:51:14;;;;;;;9.98;3.85;;;;;;;7.56;59.36;100830.59;5013133;28;20036;-80
2022/10/15 03:53:41;;;;;;;5.72;3.97;;;;;;;7.60;59.61;100842.78;5024735;28;20045;-77
2022/10/15 03:56:07;;;;;;;5.68;3.80;;;;;;;7.47;58.96;100824.38;5027997;28;20041;-77
2022/10/15 03:58:37;;;;;;;8.50;4.53;;;;;;;7.48;59.15;100820.97;5012781;28;20562;-77
2022/10/15 04:01:09;;;;;;;7.65;3.78;;;;;;;7.51;59.45;100818.44;5025243;28;20044;-79
2022/10/15 04:03:36;;;;;;;8.98;3.97;;;;;;;7.68;59.26;100836.91;5058039;28;20099;-79
2022/10/15 04:06:04;;;;;;;5.45;3.33;;;;;;;7.72;59.08;100826.59;5012829;28;20144;-77
2022/10/15 04:08:33;;;;;;;7.85;3.72;;;;;;;7.67;59.10;100811.84;5010505;28;20102;-78
2022/10/15 04:11:06;;;;;;;8.27;3.80;;;;;;;7.81;59.07;100838.03;5028476;28;20044;-81
2022/10/15 04:13:32;;;;;;;6.43;4.95;;;;;;;7.80;58.61;100841.44;5024907;28;20464;-79
2022/10/15 04:15:58;;;;;;;7.82;4.03;;;;;;;7.76;58.98;100828.38;5011423;28;20107;-80
2022/10/15 04:18:24;;;;;;;7.63;4.15;;;;;;;7.49;58.84;100799.41;5012000;28;20039;-76
2022/10/15 04:20:57;;;;;;;7.68;3.97;;;;;;;7.76;58.80;100844.81;4996493;28;21110;-79
2022/10/15 04:23:23;;;;;;;7.80;4.38;;;;;;;7.81;58.81;100848.38;5012044;28;20044;-79
2022/10/15 04:26:08;;;;;;;12.20;4.55;;;;;;;7.77;58.95;100830.13;5028547;28;20068;-78
2022/10/15 04:28:35;;;;;;;8.55;4.40;;;;;;;7.86;59.00;100837.22;5011078;28;20041;-78
2022/10/15 04:31:02;;;;;;;7.05;4.80;;;;;;;7.86;58.65;100834.63;4996176;28;20059;-79
2022/10/15 04:33:31;;;;;;;10.30;4.75;;;;;;;7.90;58.53;100845.09;5011687;28;20045;-79
2022/10/15 04:36:05;;;;;;;8.18;4.90;;;;;;;7.90;58.78;100851.97;5030600;28;20552;-76
2022/10/15 04:38:51;;;;;;;;;;;;;;;7.88;58.77;100853.66;5043284;28;20053;-77
2022/10/15 04:41:27;;;;;;;9.63;4.78;;;;;;;7.74;58.44;100843.03;5016387;28;19920;-80
2022/10/15 04:44:03;;;;;;;11.38;5.30;;;;;;;7.58;58.46;100811.66;5008058;28;20083;-79
2022/10/15 04:46:30;;;;;;;9.98;5.20;;;;;;;7.80;58.68;100841.44;5028151;28;20047;-78
2022/10/15 04:49:01;;;;;;;9.95;5.43;;;;;;;7.94;58.81;100858.97;5040896;28;20476;-79
2022/10/15 04:51:27;;;;;;;12.40;5.95;;;;;;;7.84;58.45;100835.47;5011858;28;20135;-79
2022/10/15 04:54:14;;;;;;;13.82;5.43;;;;;;;7.95;58.66;100850.34;5024037;28;20053;-78
2022/10/15 04:56:55;;;;;;;11.27;5.38;;;;;;;7.88;58.49;100838.13;5025252;28;20044;-80
2022/10/15 04:59:22;;;;;;;10.70;5.25;;;;;;;8.04;58.38;100868.69;5012104;28;20041;-78
2022/10/15 05:02:07;;;;;;;10.13;5.63;;;;;;;7.94;58.30;100843.41;5010609;28;20032;-78
2022/10/15 05:04:34;;;;;;;9.60;5.30;;;;;;;8.00;58.43;100853.91;5011352;28;20083;-79
2022/10/15 05:07:00;;;;;;;11.27;5.32;;;;;;;8.11;58.22;100861.88;5022923;28;20045;-79
2022/10/15 05:09:26;;;;;;;13.27;4.80;;;;;;;8.13;58.21;100852.41;5024101;28;20073;-81
2022/10/15 05:11:54;;;;;;;12.15;4.78;;;;;;;8.18;58.22;100861.13;5012295;28;20063;-80
2022/10/15 05:14:21;;;;;;;9.93;4.60;;;;;;;8.12;58.02;100842.88;4994658;28;20047;-80
2022/10/15 05:17:02;;;;;;;9.20;4.47;;;;;;;8.24;58.36;100861.25;5024234;28;20523;-79
2022/10/15 05:19:32;;;;;;;11.35;4.65;;;;;;;8.23;57.92;100848.25;5012476;28;20048;-79
2022/10/15 05:21:58;;;;;;;10.48;4.38;;;;;;;8.32;58.02;100861.38;5026459;28;20495;-77
2022/10/15 05:24:24;;;;;;;9.93;4.32;;;;;;;8.18;57.94;100831.75;5022668;28;20037;-79
2022/10/15 05:27:03;;;;;;;6.95;4.78;;;;;;;8.39;58.08;100858.03;5040934;28;20045;-80
2022/10/15 05:29:32;;;;;;;10.35;4.50;;;;;;;8.50;57.95;100875.53;5010357;28;20164;-79
2022/10/15 05:31:58;;;;;;;11.60;3.70;;;;;;;8.38;58.07;100858.03;5022056;28;20053;-79
2022/10/15 05:34:29;;;;;;;8.57;5.00;;;;;;;8.39;57.88;100860.63;5026070;28;20048;-80
2022/10/15 05:37:06;;;;;;;7.30;4.10;;;;;;;8.48;57.52;100862.53;5024192;28;20068;-81
2022/10/15 05:39:32;;;;;;;8.57;4.13;;;;;;;8.53;57.42;100866.09;5002596;28;20080;-79
2022/10/15 05:41:59;;;;;;;7.55;3.88;;;;;;;8.51;57.46;100859.13;5012206;28;20190;-78
2022/10/15 05:44:37;;;;;;;9.90;4.10;;;;;;;8.54;57.29;100843.59;5033158;28;20040;-80
2022/10/15 05:47:04;;;;;;;11.88;5.63;;;;;;;8.77;57.21;100863.84;5036045;28;20419;-79
2022/10/15 05:49:31;;;;;;;10.10;5.32;;;;;;;8.90;57.25;100881.38;5020574;28;20067;-78
2022/10/15 05:52:05;;;;;;;12.65;4.95;;;;;;;8.93;57.12;100881.44;5027817;28;20041;-80
2022/10/15 05:54:49;;;;;;;10.77;4.75;;;;;;;8.79;57.00;100865.66;5062067;28;20040;-79
2022/10/15 05:57:15;;;;;;;10.57;4.13;;;;;;;8.91;56.88;100888.31;5048961;28;20524;-79
2022/10/15 05:59:42;;;;;;;9.05;4.50;;;;;;;8.93;57.05;100891.81;5035996;28;20045;-78
2022/10/15 06:02:14;;;;;;;8.20;4.35;;;;;;;8.94;56.84;100892.69;5012273;28;20118;-79
2022/10/15 06:04:42;;;;;;;6.88;4.10;;;;;;;8.86;56.96;100883.03;5028709;28;20098;-77
2022/10/15 06:07:10;;;;;;;7.03;4.20;;;;;;;8.98;56.31;100894.47;5027167;28;20099;-78
2022/10/15 06:09:36;;;;;;;6.85;3.85;;;;;;;9.00;56.35;100893.63;5043935;28;20037;-80
2022/10/15 06:12:04;;;;;;;9.35;4.38;;;;;;;9.08;56.39;100887.69;5044141;28;20522;-80
2022/10/15 06:14:30;;;;;;;8.15;3.97;;;;;;;9.11;56.05;100891.19;5033583;28;20500;-78
2022/10/15 06:16:57;;;;;;;7.28;4.40;;;;;;;9.15;56.12;100887.81;5016507;28;20461;-82
2022/10/15 06:19:33;;;;;;;9.45;3.83;;;;;;;9.22;56.05;100899.16;5046393;28;20155;-80
2022/10/15 06:25:33;;;;;;;10.57;4.30;;;;;;;9.14;55.75;100883.47;5046965;28;20094;-78
2022/10/15 06:28:32;;;;;;;9.73;4.32;;;;;;;8.62;55.38;100803.09;5002925;28;20047;-79
2022/10/15 06:34:35;;;;;;;7.13;4.00;;;;;;;8.93;55.63;100828.63;5048057;28;20040;-79
2022/10/15 06:37:24;;;;;;;4.85;3.70;;;;;;;9.46;55.20;100900.34;5008922;28;20050;-79
2022/10/15 06:40:11;;;;;;;7.00;4.38;;;;;;;9.32;54.91;100875.06;5028950;28;20048;-80
2022/10/15 06:42:41;;;;;;;12.98;4.72;;;;;;;8.93;54.63;100808.75;5010717;28;20041;-80
2022/10/15 06:45:09;;;;;;;10.48;4.60;;;;;;;9.35;54.68;100871.63;5023996;28;20038;-79
2022/10/15 06:47:36;;;;;;;11.55;5.05;;;;;;;9.60;54.89;100897.91;5023931;28;20529;-82
2022/10/15 06:50:06;;;;;;;6.10;4.07;;;;;;;9.76;54.71;100902.44;5013497;28;20044;-80
2022/10/15 06:53:16;;;;;;;8.95;5.40;;;;;;;9.68;54.35;100872.03;5024382;28;20204;-81
2022/10/15 06:56:56;;;;;;;8.95;4.80;;;;;;;10.00;53.98;100915.72;4971667;28;20575;-80
2022/10/15 06:59:47;;;;;;;12.13;5.00;;;;;;;9.23;53.77;100771.03;4953085;28;20556;-79
2022/10/15 07:02:35;;;;;;;10.27;6.28;;;;;;;10.16;53.36;100916.75;5024139;28;20056;-80
2022/10/15 07:05:42;;;;;;;9.18;4.95;;;;;;;10.18;53.02;100904.63;4969252;28;20148;-83
2022/10/15 07:08:23;;;;;;;9.77;4.70;;;;;;;10.23;52.86;100919.47;5029130;28;20094;-80
2022/10/15 07:10:58;;;;;;;;;;;;;;;10.28;52.67;100916.88;5044096;28;20037;-79
2022/10/15 07:13:38;;;;;;;6.15;3.53;;;;;;;9.18;52.47;100742.44;5024293;28;19921;-80
2022/10/15 07:16:22;;;;;;;9.77;3.75;;;;;;;9.35;52.63;100757.31;5002084;28;20627;-80
2022/10/15 07:19:00;;;;;;;12.10;3.75;;;;;;;10.00;52.11;100874.97;5032746;28;20044;-81
2022/10/15 07:21:26;;;;;;;7.93;3.45;;;;;;;10.15;52.39;100900.28;5030068;28;20041;-79
2022/10/15 07:23:55;;;;;;;6.68;3.75;;;;;;;10.23;52.24;100913.38;5024925;28;20037;-79
2022/10/15 07:26:22;;;;;;;12.20;3.67;;;;;;;10.19;52.02;100922.00;5009429;28;20406;-80
2022/10/15 07:28:48;;;;;;;7.72;4.15;;;;;;;10.14;52.26;100908.94;5025540;28;20125;-80
2022/10/15 07:31:14;;;;;;;6.68;3.22;;;;;;;10.33;52.19;100920.41;5030034;28;20045;-80
2022/10/15 07:33:41;;;;;;;6.45;3.72;;;;;;;10.43;51.95;100924.00;5027435;28;20033;-79
2022/10/15 07:36:11;;;;;;;7.90;4.10;;;;;;;10.25;51.79;100894.34;5026234;28;20505;-80
2022/10/15 07:38:39;;;;;;;10.15;3.67;;;;;;;9.74;51.43;100807.97;5028255;28;20040;-82
2022/10/15 07:41:06;;;;;;;10.55;4.28;;;;;;;10.29;51.82;100902.13;5045519;28;20128;-82
2022/10/15 07:43:39;;;;;;;8.45;3.80;;;;;;;10.36;51.80;100915.25;5048109;28;20061;-81
2022/10/15 07:46:05;;;;;;;10.82;4.22;;;;;;;10.37;51.62;100897.91;5044642;28;20056;-79
2022/10/15 07:48:31;;;;;;;5.95;4.20;;;;;;;10.66;51.16;100939.84;5045923;28;20114;-81
2022/10/15 07:51:04;;;;;;;8.65;4.20;;;;;;;10.55;51.30;100931.94;5057559;28;20036;-81
2022/10/15 07:53:31;;;;;;;9.70;3.80;;;;;;;10.37;50.96;100916.97;5024078;28;20033;-81
2022/10/15 07:56:00;;;;;;;11.13;4.18;;;;;;;10.25;51.22;100899.53;5028066;28;20037;-82
2022/10/15 07:58:30;;;;;;;8.57;4.35;;;;;;;10.06;51.15;100845.56;5015916;28;20140;-80
2022/10/15 08:01:01;;;;;;;8.02;4.35;;;;;;;10.32;50.97;100905.66;5011931;28;20040;-80
2022/10/15 08:03:30;;;;;;;11.60;4.22;;;;;;;10.35;50.50;100923.03;5028913;28;20060;-80
2022/10/15 08:05:58;;;;;;;15.73;4.68;;;;;;;10.44;50.76;100943.09;5032073;28;20052;-80
2022/10/15 08:08:29;;;;;;;14.75;4.60;;;;;;;10.36;51.23;100932.56;5013297;28;20086;-80
2022/10/15 08:11:13;;;;;;;8.57;4.38;;;;;;;10.26;50.80;100923.81;5011978;28;20485;-80
2022/10/15 08:13:53;;;;;;;8.63;4.18;;;;;;;10.42;50.45;100939.59;4996235;28;20046;-82
2022/10/15 08:16:48;;;;;;;;;;;;;;;;;;;;;
2022/10/15 08:20:19;;;;;;;13.95;4.47;;;;;;;9.80;50.96;100859.19;5003515;28;20444;-79
2022/10/15 08:23:55;;;;;;;7.70;4.47;;;;;;;9.84;51.16;100863.53;4994920;28;20089;-81
2022/10/15 08:26:43;;;;;;;8.52;4.47;;;;;;;10.36;51.05;100942.97;4973052;28;20037;-80
2022/10/15 08:29:16;;;;;;;9.18;5.32;;;;;;;10.40;50.99;100947.41;4992539;28;20049;-81
2022/10/15 08:31:42;;;;;;;15.55;6.85;;;;;;;10.44;50.79;100938.78;5024093;28;20041;-81
2022/10/15 08:34:11;;;;;;;14.18;5.45;;;;;;;10.44;50.69;100948.28;5029599;28;20042;-80
2022/10/15 08:41:51;;;;;;;8.70;4.65;;;;;;;10.46;50.79;100950.06;4981636;28;20084;-81
2022/10/15 08:45:34;;;;;;;;;;;;;;;;;;;;;
2022/10/15 08:49:06;;;;;;;18.30;5.68;;;;;;;10.30;50.74;100920.38;5025776;28;20046;-79
2022/10/15 08:52:26;;;;;;;10.45;5.20;;;;;;;10.65;50.66;100955.44;4993707;28;20045;-80
2022/10/15 08:55:58;;;;;;;13.02;5.82;;;;;;;9.99;50.63;100846.38;5011572;28;20067;-79
2022/10/15 08:59:32;;;;;;;13.50;6.83;;;;;;;9.61;50.11;100796.56;4966499;28;20045;-82
2022/10/15 09:06:26;;;;;;;15.63;6.88;;;;;;;10.56;50.20;100958.84;4988610;28;20099;-81
2022/10/15 09:09:36;;;;;;;;;;;;;;;;;;;;;
2022/10/15 09:12:52;;;;;;;13.85;7.13;;;;;;;10.24;50.33;100895.19;5021833;28;20037;-82
2022/10/15 09:15:27;;;;;;;17.98;7.30;;;;;;;9.75;50.13;100788.06;5023237;28;20045;-80
2022/10/15 09:22:46;;;;;;;14.02;6.18;;;;;;;10.27;50.01;100852.72;4957884;28;20534;-80
2022/10/15 09:25:36;;;;;;;15.02;7.25;;;;;;;10.91;49.75;100954.81;4926476;28;20050;-79
2022/10/15 09:28:37;;;;;;;18.38;7.63;;;;;;;10.78;50.12;100920.84;5008701;28;20056;-82
2022/10/15 09:31:35;;;;;;;14.25;7.22;;;;;;;11.00;50.07;100941.84;5026000;28;20056;-80
2022/10/15 09:38:45;;;;;;;12.48;6.57;;;;;;;11.22;49.54;100958.50;4954077;28;20057;-80
2022/10/15 09:41:55;;;;;;;10.82;6.55;;;;;;;11.22;49.19;100957.63;5006513;28;20102;-80
2022/10/15 09:44:32;;;;;;;15.43;6.65;;;;;;;10.64;49.31;100852.19;5022849;28;20116;-79
2022/10/15 09:47:30;;;;;;;15.88;7.85;;;;;;;10.72;49.63;100871.31;5021905;28;20041;-83
2022/10/15 09:50:14;;;;;;;13.00;7.82;;;;;;;10.49;49.26;100814.75;5038264;28;20041;-81
2022/10/15 09:53:46;;;;;;;15.18;6.88;;;;;;;11.43;49.23;100955.16;5012244;28;20041;-81
2022/10/15 09:56:55;;;;;;;16.05;8.25;;;;;;;11.46;49.46;100975.19;4913024;29;20115;-81
2022/10/15 09:59:23;;;;;;;19.42;8.05;;;;;;;11.33;49.36;100927.31;4923956;29;20052;-82
2022/10/15 10:02:18;;;;;;;14.52;7.10;;;;;;;11.49;48.98;100954.31;4999510;28;20057;-80
2022/10/15 10:04:44;;;;;;;12.02;6.50;;;;;;;11.52;48.78;100958.69;5021237;28;20718;-80
2022/10/15 10:07:34;;;;;;;15.80;7.10;;;;;;;11.45;48.53;100937.81;5019781;28;20052;-80
2022/10/15 10:10:20;;;;;;;11.52;6.45;;;;;;;11.56;48.64;100956.09;5010377;28;20042;-79
2022/10/15 10:12:46;;;;;;;10.18;7.10;;;;;;;11.28;48.75;100914.25;5067147;28;20160;-80
2022/10/15 10:15:35;;;;;;;12.40;7.20;;;;;;;11.48;48.57;100955.19;5038422;28;20103;-80
2022/10/15 10:18:05;;;;;;;14.73;7.47;;;;;;;11.33;48.19;100919.50;5036568;28;20045;-80
2022/10/15 10:20:33;;;;;;;13.40;7.03;;;;;;;11.32;48.13;100912.53;5012075;28;20038;-79
2022/10/15 10:23:01;;;;;;;13.98;7.22;;;;;;;11.44;48.29;100943.88;5020784;28;20047;-80
2022/10/15 10:25:33;;;;;;;11.75;6.75;;;;;;;11.35;48.54;100946.44;5037260;28;20513;-80
2022/10/15 10:28:08;;;;;;;12.80;6.65;;;;;;;11.35;48.56;100954.25;5006383;28;20067;-79
2022/10/15 10:30:38;;;;;;;9.85;5.63;;;;;;;11.22;48.46;100942.88;5012486;28;20088;-81
2022/10/15 10:33:05;;;;;;;12.85;6.35;;;;;;;11.32;48.54;100956.84;5030440;28;20137;-79
2022/10/15 10:35:44;;;;;;;12.10;6.05;;;;;;;11.20;48.30;100931.56;5026894;28;20037;-80
2022/10/15 10:38:25;;;;;;;12.27;6.10;;;;;;;11.38;48.58;100950.78;5010566;28;20057;-80
2022/10/15 10:41:06;;;;;;;15.35;5.93;;;;;;;11.32;48.20;100950.75;5026475;28;20056;-79
2022/10/15 10:43:38;;;;;;;10.82;5.80;;;;;;;11.09;48.53;100926.28;5034849;28;20049;-78
2022/10/15 10:46:15;;;;;;;14.80;6.88;;;;;;;11.21;48.36;100956.78;5015412;28;20086;-80
2022/10/15 10:48:49;;;;;;;13.68;6.70;;;;;;;10.83;48.55;100903.53;5019044;28;20048;-80
2022/10/15 10:51:17;;;;;;;11.38;6.50;;;;;;;10.96;48.69;100940.06;5032386;28;20051;-80
2022/10/15 10:53:59;;;;;;;10.38;6.80;;;;;;;10.74;48.42;100913.84;5033181;28;20037;-80
2022/10/15 10:56:42;;;;;;;10.27;6.13;;;;;;;10.92;48.42;100956.56;5045959;28;20045;-79
2022/10/15 10:59:27;;;;;;;10.77;5.93;;;;;;;10.83;48.52;100953.00;5012995;28;20049;-79
2022/10/15 11:01:57;;;;;;;13.90;6.43;;;;;;;10.49;48.88;100890.22;5029122;28;20041;-82
2022/10/15 11:04:32;;;;;;;11.73;5.50;;;;;;;10.40;48.82;100890.16;5034612;28;20093;-79
2022/10/15 11:07:18;;;;;;;10.52;5.40;;;;;;;10.70;48.69;100927.75;5045238;28;20501;-81
2022/10/15 11:10:08;;;;;;;9.13;5.63;;;;;;;10.90;48.74;100947.84;5033925;28;20651;-80
2022/10/15 11:13:13;;;;;;;9.77;5.75;;;;;;;10.91;48.91;100953.06;5030087;28;20046;-78
2022/10/15 11:15:51;;;;;;;15.35;5.50;;;;;;;10.71;48.55;100911.22;4944393;28;20072;-81
2022/10/15 11:18:45;;;;;;;8.30;4.68;;;;;;;11.07;48.55;100951.47;5025468;28;20050;-81
2022/10/15 11:21:26;;;;;;;9.02;5.43;;;;;;;11.00;48.55;100924.50;5006914;28;20119;-81
2022/10/15 11:24:02;;;;;;;13.07;5.57;;;;;;;11.18;48.15;100942.81;5056066;28;20045;-80
2022/10/15 11:26:45;;;;;;;9.30;5.13;;;;;;;11.23;48.07;100946.34;5001945;28;20109;-79
2022/10/15 11:29:20;;;;;;;;;;;;;;;11.24;47.92;100945.47;5018928;28;20045;-80
2022/10/15 11:32:41;;;;;;;9.80;5.50;;;;;;;11.29;47.93;100946.41;5017929;28;19917;-80
2022/10/15 11:35:40;;;;;;;15.55;5.65;;;;;;;11.38;48.03;100936.00;4951852;28;20094;-80
2022/10/15 11:38:37;;;;;;;12.40;6.47;;;;;;;10.74;47.86;100833.16;4990561;28;20077;-79
2022/10/15 11:41:37;;;;;;;11.85;5.18;;;;;;;11.41;48.09;100940.38;5008854;28;20552;-80
2022/10/15 11:44:19;;;;;;;12.48;5.68;;;;;;;11.39;47.64;100935.16;4997521;28;20075;-79
2022/10/15 11:47:37;;;;;;;12.48;6.03;;;;;;;11.39;47.96;100937.75;4978617;28;20056;-80
2022/10/15 11:50:35;;;;;;;13.85;6.93;;;;;;;11.43;47.99;100938.66;5015334;28;20037;-79
2022/10/15 11:54:08;;;;;;;10.45;6.10;;;;;;;11.13;47.72;100885.50;5042877;28;20082;-78
2022/10/15 11:56:47;;;;;;;14.13;6.18;;;;;;;10.73;47.58;100804.53;5024845;28;20511;-80
2022/10/15 11:59:36;;;;;;;15.10;7.10;;;;;;;11.53;47.98;100931.75;5027778;28;20055;-81
2022/10/15 12:02:23;;;;;;;16.35;6.85;;;;;;;11.55;47.92;100937.88;5015238;28;20044;-79
2022/10/15 12:05:16;;;;;;;14.30;6.80;;;;;;;11.51;47.76;100925.66;5030373;28;20045;-80
2022/10/15 12:07:50;;;;;;;15.80;6.78;;;;;;;11.57;47.45;100933.53;5000785;28;20100;-79
2022/10/15 12:10:46;;;;;;;17.38;7.07;;;;;;;11.63;47.77;100943.09;5026869;28;20045;-78
2022/10/15 12:13:38;;;;;;;12.85;6.60;;;;;;;11.54;47.48;100936.97;5026960;28;20080;-80
2022/10/15 12:16:50;;;;;;;14.32;6.15;;;;;;;11.39;47.75;100916.91;5015669;28;20669;-79
2022/10/15 12:19:47;;;;;;;16.63;7.72;;;;;;;11.22;47.91;100893.38;5002697;28;20040;-79
2022/10/15 12:22:37;;;;;;;14.80;7.40;;;;;;;11.26;47.69;100889.06;5047717;28;20041;-80
2022/10/15 12:29:19;;;;;;;17.10;7.22;;;;;;;11.36;48.09;100903.88;5002558;28;20046;-80
2022/10/15 12:31:55;;;;;;;19.83;7.80;;;;;;;10.59;47.65;100766.28;4974952;28;20038;-80
2022/10/15 12:34:39;;;;;;;17.38;7.70;;;;;;;11.63;47.58;100941.34;5012797;28;20134;-81
2022/10/15 12:37:46;;;;;;;20.70;8.25;;;;;;;11.55;47.60;100927.44;5027998;28;20045;-80
2022/10/15 12:40:59;;;;;;;12.27;7.07;;;;;;;11.44;47.59;100923.03;5008737;28;20192;-80
2022/10/15 12:43:40;;;;;;;16.00;7.13;;;;;;;11.39;47.86;100934.28;4968367;28;20142;-79
2022/10/15 12:46:09;;;;;;;17.77;7.60;;;;;;;11.41;48.11;100928.22;5022699;28;20788;-80
2022/10/15 12:48:45;;;;;;;15.27;7.20;;;;;;;11.21;47.58;100891.63;5025957;28;20050;-80
2022/10/15 12:51:21;;;;;;;15.93;7.30;;;;;;;11.37;47.99;100923.84;5025910;28;20491;-81
2022/10/15 12:53:49;;;;;;;17.27;8.02;;;;;;;11.15;48.03;100889.84;5035180;28;20054;-80
2022/10/15 12:56:15;;;;;;;17.67;7.28;;;;;;;11.41;48.13;100920.41;5024450;28;20038;-79